sensor_id;sensor_type;location;lat;lon;timestamp;temperature;humidity
56256;DHT22;57229;51.432;-2.598;2023-04-03T00:00:25;5.00;99.90
56256;DHT22;57229;51.432;-2.598;2023-04-03T00:02:51;4.90;99.90
56256;DHT22;57229;51.432;-2.598;2023-04-03T00:05:16;4.90;99.90
56256;DHT22;57229;51.432;-2.598;2023-04-03T00:07:42;4.90;99.90
56256;DHT22;57229;51.432;-2.598;2023-04-03T00:10:08;4.70;99.90
56256;DHT22;57229;51.432;-2.598;2023-04-03T00:12:34;4.70;99.90
56256;DHT22;57229;51.432;-2.598;2023-04-03T00:15:00;4.70;99.90
56256;DHT22;57229;51.432;-2.598;2023-04-03T00:17:25;4.60;99.90
56256;DHT22;57229;51.432;-2.598;2023-04-03T00:19:51;4.60;99.90
56256;DHT22;57229;51.432;-2.598;2023-04-03T00:22:16;4.60;99.90
56256;DHT22;57229;51.432;-2.598;2023-04-03T00:24:42;4.50;99.90
56256;DHT22;57229;51.432;-2.598;2023-04-03T00:27:08;4.50;99.90
56256;DHT22;57229;51.432;-2.598;2023-04-03T00:29:33;4.40;99.90
56256;DHT22;57229;51.432;-2.598;2023-04-03T00:32:00;4.40;99.90
56256;DHT22;57229;51.432;-2.598;2023-04-03T00:34:25;4.40;99.90
56256;DHT22;57229;51.432;-2.598;2023-04-03T00:36:51;4.40;99.90
56256;DHT22;57229;51.432;-2.598;2023-04-03T00:39:17;4.40;99.90
56256;DHT22;57229;51.432;-2.598;2023-04-03T00:41:43;4.40;99.90
56256;DHT22;57229;51.432;-2.598;2023-04-03T00:47:10;4.30;99.90
56256;DHT22;57229;51.432;-2.598;2023-04-03T00:49:38;4.40;99.90
56256;DHT22;57229;51.432;-2.598;2023-04-03T00:52:07;4.40;99.90
56256;DHT22;57229;51.432;-2.598;2023-04-03T00:54:35;4.40;99.90
56256;DHT22;57229;51.432;-2.598;2023-04-03T00:57:02;4.40;99.90
56256;DHT22;57229;51.432;-2.598;2023-04-03T00:59:34;4.50;99.90
56256;DHT22;57229;51.432;-2.598;2023-04-03T01:02:00;4.50;99.90
56256;DHT22;57229;51.432;-2.598;2023-04-03T01:04:31;4.50;99.90
56256;DHT22;57229;51.432;-2.598;2023-04-03T01:07:22;4.50;99.90
56256;DHT22;57229;51.432;-2.598;2023-04-03T01:09:47;4.50;99.90
56256;DHT22;57229;51.432;-2.598;2023-04-03T01:12:21;4.50;99.90
56256;DHT22;57229;51.432;-2.598;2023-04-03T01:14:49;4.40;99.90
56256;DHT22;57229;51.432;-2.598;2023-04-03T01:17:40;4.40;99.90
56256;DHT22;57229;51.432;-2.598;2023-04-03T01:25:45;4.20;99.90
56256;DHT22;57229;51.432;-2.598;2023-04-03T01:28:14;4.10;99.90
56256;DHT22;57229;51.432;-2.598;2023-04-03T01:33:40;4.00;99.90
56256;DHT22;57229;51.432;-2.598;2023-04-03T01:36:07;3.90;99.90
56256;DHT22;57229;51.432;-2.598;2023-04-03T01:38:33;3.90;99.90
56256;DHT22;57229;51.432;-2.598;2023-04-03T01:40:59;3.90;99.90
56256;DHT22;57229;51.432;-2.598;2023-04-03T01:43:25;3.90;99.90
56256;DHT22;57229;51.432;-2.598;2023-04-03T01:45:51;3.80;99.90
56256;DHT22;57229;51.432;-2.598;2023-04-03T01:48:18;3.80;99.90
56256;DHT22;57229;51.432;-2.598;2023-04-03T01:50:44;4.10;99.90
56256;DHT22;57229;51.432;-2.598;2023-04-03T01:53:09;3.60;99.90
56256;DHT22;57229;51.432;-2.598;2023-04-03T01:55:35;3.60;99.90
56256;DHT22;57229;51.432;-2.598;2023-04-03T01:58:01;3.50;99.90
56256;DHT22;57229;51.432;-2.598;2023-04-03T02:00:26;3.50;99.90
56256;DHT22;57229;51.432;-2.598;2023-04-03T02:02:52;3.40;99.90
56256;DHT22;57229;51.432;-2.598;2023-04-03T02:05:18;3.40;99.90
56256;DHT22;57229;51.432;-2.598;2023-04-03T02:07:44;3.30;99.90
56256;DHT22;57229;51.432;-2.598;2023-04-03T02:10:10;3.40;99.90
56256;DHT22;57229;51.432;-2.598;2023-04-03T02:12:36;3.30;99.90
56256;DHT22;57229;51.432;-2.598;2023-04-03T02:15:02;3.30;99.90
56256;DHT22;57229;51.432;-2.598;2023-04-03T02:17:27;3.30;99.90
56256;DHT22;57229;51.432;-2.598;2023-04-03T02:19:53;3.20;99.90
56256;DHT22;57229;51.432;-2.598;2023-04-03T02:22:19;3.10;99.90
56256;DHT22;57229;51.432;-2.598;2023-04-03T02:24:45;3.10;99.90
56256;DHT22;57229;51.432;-2.598;2023-04-03T02:27:11;3.00;99.90
56256;DHT22;57229;51.432;-2.598;2023-04-03T02:29:37;3.00;99.90
56256;DHT22;57229;51.432;-2.598;2023-04-03T02:32:02;2.90;99.90
56256;DHT22;57229;51.432;-2.598;2023-04-03T02:34:28;2.90;99.90
56256;DHT22;57229;51.432;-2.598;2023-04-03T02:36:54;2.90;99.90
56256;DHT22;57229;51.432;-2.598;2023-04-03T02:39:19;2.90;99.90
56256;DHT22;57229;51.432;-2.598;2023-04-03T02:41:45;2.80;99.90
56256;DHT22;57229;51.432;-2.598;2023-04-03T02:44:11;2.80;99.90
56256;DHT22;57229;51.432;-2.598;2023-04-03T02:46:37;2.70;99.90
56256;DHT22;57229;51.432;-2.598;2023-04-03T02:49:03;2.70;99.90
56256;DHT22;57229;51.432;-2.598;2023-04-03T02:51:29;2.70;99.90
56256;DHT22;57229;51.432;-2.598;2023-04-03T02:53:55;2.70;99.90
56256;DHT22;57229;51.432;-2.598;2023-04-03T02:56:21;2.70;99.90
56256;DHT22;57229;51.432;-2.598;2023-04-03T02:58:47;3.00;99.90
56256;DHT22;57229;51.432;-2.598;2023-04-03T03:01:12;2.80;99.90
56256;DHT22;57229;51.432;-2.598;2023-04-03T03:03:38;2.50;99.90
56256;DHT22;57229;51.432;-2.598;2023-04-03T03:06:05;2.50;99.90
56256;DHT22;57229;51.432;-2.598;2023-04-03T03:08:31;2.40;99.90
56256;DHT22;57229;51.432;-2.598;2023-04-03T03:10:57;2.40;99.90
56256;DHT22;57229;51.432;-2.598;2023-04-03T03:13:23;2.40;99.90
56256;DHT22;57229;51.432;-2.598;2023-04-03T03:15:49;2.30;99.90
56256;DHT22;57229;51.432;-2.598;2023-04-03T03:18:14;2.40;99.90
56256;DHT22;57229;51.432;-2.598;2023-04-03T03:20:40;2.40;99.90
56256;DHT22;57229;51.432;-2.598;2023-04-03T03:23:06;2.40;99.90
56256;DHT22;57229;51.432;-2.598;2023-04-03T03:25:32;2.40;99.90
56256;DHT22;57229;51.432;-2.598;2023-04-03T03:27:57;2.40;99.90
56256;DHT22;57229;51.432;-2.598;2023-04-03T03:30:23;2.30;99.90
56256;DHT22;57229;51.432;-2.598;2023-04-03T03:32:49;2.30;99.90
56256;DHT22;57229;51.432;-2.598;2023-04-03T03:35:14;2.20;99.90
56256;DHT22;57229;51.432;-2.598;2023-04-03T03:37:40;2.20;99.90
56256;DHT22;57229;51.432;-2.598;2023-04-03T03:40:06;2.20;99.90
56256;DHT22;57229;51.432;-2.598;2023-04-03T03:42:32;2.20;99.90
56256;DHT22;57229;51.432;-2.598;2023-04-03T03:44:58;2.40;99.90
56256;DHT22;57229;51.432;-2.598;2023-04-03T03:47:23;2.10;99.90
56256;DHT22;57229;51.432;-2.598;2023-04-03T03:49:49;2.20;99.90
56256;DHT22;57229;51.432;-2.598;2023-04-03T03:52:15;2.20;99.90
56256;DHT22;57229;51.432;-2.598;2023-04-03T03:54:40;2.20;99.90
56256;DHT22;57229;51.432;-2.598;2023-04-03T03:57:06;2.00;99.90
56256;DHT22;57229;51.432;-2.598;2023-04-03T03:59:32;2.10;99.90
56256;DHT22;57229;51.432;-2.598;2023-04-03T04:01:57;2.20;99.90
56256;DHT22;57229;51.432;-2.598;2023-04-03T04:04:23;2.20;99.90
56256;DHT22;57229;51.432;-2.598;2023-04-03T04:06:49;2.00;99.90
56256;DHT22;57229;51.432;-2.598;2023-04-03T04:09:14;2.20;99.90
56256;DHT22;57229;51.432;-2.598;2023-04-03T04:11:40;2.30;99.90
56256;DHT22;57229;51.432;-2.598;2023-04-03T04:14:06;2.20;99.90
56256;DHT22;57229;51.432;-2.598;2023-04-03T04:16:32;1.90;99.90
56256;DHT22;57229;51.432;-2.598;2023-04-03T04:18:58;1.80;99.90
56256;DHT22;57229;51.432;-2.598;2023-04-03T04:21:24;1.80;99.90
56256;DHT22;57229;51.432;-2.598;2023-04-03T04:23:49;1.80;99.90
56256;DHT22;57229;51.432;-2.598;2023-04-03T04:26:15;1.80;99.90
56256;DHT22;57229;51.432;-2.598;2023-04-03T04:28:41;1.80;99.90
56256;DHT22;57229;51.432;-2.598;2023-04-03T04:31:06;1.80;99.90
56256;DHT22;57229;51.432;-2.598;2023-04-03T04:33:32;1.80;99.90
56256;DHT22;57229;51.432;-2.598;2023-04-03T04:35:58;1.70;99.90
56256;DHT22;57229;51.432;-2.598;2023-04-03T04:38:23;1.70;99.90
56256;DHT22;57229;51.432;-2.598;2023-04-03T04:40:49;1.50;99.90
56256;DHT22;57229;51.432;-2.598;2023-04-03T04:43:17;1.50;99.90
56256;DHT22;57229;51.432;-2.598;2023-04-03T04:45:42;1.50;99.90
56256;DHT22;57229;51.432;-2.598;2023-04-03T04:48:08;2.10;99.90
56256;DHT22;57229;51.432;-2.598;2023-04-03T04:50:34;1.50;99.90
56256;DHT22;57229;51.432;-2.598;2023-04-03T04:53:00;1.80;99.90
56256;DHT22;57229;51.432;-2.598;2023-04-03T04:55:26;1.60;99.90
56256;DHT22;57229;51.432;-2.598;2023-04-03T04:57:51;1.60;99.90
56256;DHT22;57229;51.432;-2.598;2023-04-03T05:00:17;1.60;99.90
56256;DHT22;57229;51.432;-2.598;2023-04-03T05:02:43;1.60;99.90
56256;DHT22;57229;51.432;-2.598;2023-04-03T05:05:09;1.50;99.90
56256;DHT22;57229;51.432;-2.598;2023-04-03T05:07:34;1.40;99.90
56256;DHT22;57229;51.432;-2.598;2023-04-03T05:10:01;1.30;99.90
56256;DHT22;57229;51.432;-2.598;2023-04-03T05:12:28;1.60;99.90
56256;DHT22;57229;51.432;-2.598;2023-04-03T05:14:54;1.30;99.90
56256;DHT22;57229;51.432;-2.598;2023-04-03T05:17:20;1.30;99.90
56256;DHT22;57229;51.432;-2.598;2023-04-03T05:19:45;1.30;99.90
56256;DHT22;57229;51.432;-2.598;2023-04-03T05:22:11;1.60;99.90
56256;DHT22;57229;51.432;-2.598;2023-04-03T05:24:37;1.50;99.90
56256;DHT22;57229;51.432;-2.598;2023-04-03T05:27:03;1.20;99.90
56256;DHT22;57229;51.432;-2.598;2023-04-03T05:29:29;1.40;99.90
56256;DHT22;57229;51.432;-2.598;2023-04-03T05:31:55;1.20;99.90
56256;DHT22;57229;51.432;-2.598;2023-04-03T05:34:20;2.00;99.90
56256;DHT22;57229;51.432;-2.598;2023-04-03T05:36:49;1.20;99.90
56256;DHT22;57229;51.432;-2.598;2023-04-03T05:39:14;1.10;99.90
56256;DHT22;57229;51.432;-2.598;2023-04-03T05:41:40;1.90;99.90
56256;DHT22;57229;51.432;-2.598;2023-04-03T05:44:06;1.10;99.90
56256;DHT22;57229;51.432;-2.598;2023-04-03T05:46:32;1.20;99.90
56256;DHT22;57229;51.432;-2.598;2023-04-03T05:48:58;1.10;99.90
56256;DHT22;57229;51.432;-2.598;2023-04-03T05:51:28;1.20;99.90
56256;DHT22;57229;51.432;-2.598;2023-04-03T05:54:00;1.10;99.90
56256;DHT22;57229;51.432;-2.598;2023-04-03T05:56:28;1.40;99.90
56256;DHT22;57229;51.432;-2.598;2023-04-03T05:58:54;1.20;99.90
56256;DHT22;57229;51.432;-2.598;2023-04-03T06:01:20;1.20;99.90
56256;DHT22;57229;51.432;-2.598;2023-04-03T06:03:46;1.30;99.90
56256;DHT22;57229;51.432;-2.598;2023-04-03T06:06:13;1.70;99.90
56256;DHT22;57229;51.432;-2.598;2023-04-03T06:08:39;1.20;99.90
56256;DHT22;57229;51.432;-2.598;2023-04-03T06:11:05;1.20;99.90
56256;DHT22;57229;51.432;-2.598;2023-04-03T06:13:31;1.20;99.90
56256;DHT22;57229;51.432;-2.598;2023-04-03T06:15:57;1.20;99.90
56256;DHT22;57229;51.432;-2.598;2023-04-03T06:18:23;1.30;99.90
56256;DHT22;57229;51.432;-2.598;2023-04-03T06:20:48;1.30;99.90
56256;DHT22;57229;51.432;-2.598;2023-04-03T06:23:14;1.80;99.90
56256;DHT22;57229;51.432;-2.598;2023-04-03T06:25:40;1.30;99.90
56256;DHT22;57229;51.432;-2.598;2023-04-03T06:28:06;1.30;99.90
56256;DHT22;57229;51.432;-2.598;2023-04-03T06:30:34;1.60;99.90
56256;DHT22;57229;51.432;-2.598;2023-04-03T06:33:00;1.30;99.90
56256;DHT22;57229;51.432;-2.598;2023-04-03T06:35:26;1.30;99.90
56256;DHT22;57229;51.432;-2.598;2023-04-03T06:37:53;1.40;99.90
56256;DHT22;57229;51.432;-2.598;2023-04-03T06:40:22;1.40;99.90
56256;DHT22;57229;51.432;-2.598;2023-04-03T06:42:48;2.60;99.90
56256;DHT22;57229;51.432;-2.598;2023-04-03T06:45:14;1.90;99.90
56256;DHT22;57229;51.432;-2.598;2023-04-03T06:47:40;1.50;99.90
56256;DHT22;57229;51.432;-2.598;2023-04-03T06:50:06;1.60;99.90
56256;DHT22;57229;51.432;-2.598;2023-04-03T06:52:34;1.60;99.90
56256;DHT22;57229;51.432;-2.598;2023-04-03T06:54:59;1.70;99.90
56256;DHT22;57229;51.432;-2.598;2023-04-03T06:57:25;1.80;99.90
56256;DHT22;57229;51.432;-2.598;2023-04-03T06:59:51;2.20;99.90
56256;DHT22;57229;51.432;-2.598;2023-04-03T07:02:17;2.00;99.90
56256;DHT22;57229;51.432;-2.598;2023-04-03T07:04:43;2.10;99.90
56256;DHT22;57229;51.432;-2.598;2023-04-03T07:07:08;2.20;99.90
56256;DHT22;57229;51.432;-2.598;2023-04-03T07:09:34;2.40;99.90
56256;DHT22;57229;51.432;-2.598;2023-04-03T07:12:00;2.60;99.90
56256;DHT22;57229;51.432;-2.598;2023-04-03T07:14:26;3.00;99.90
56256;DHT22;57229;51.432;-2.598;2023-04-03T07:16:51;3.30;99.90
56256;DHT22;57229;51.432;-2.598;2023-04-03T07:19:17;3.70;99.90
56256;DHT22;57229;51.432;-2.598;2023-04-03T07:21:44;4.10;99.90
56256;DHT22;57229;51.432;-2.598;2023-04-03T07:24:10;4.60;99.90
56256;DHT22;57229;51.432;-2.598;2023-04-03T07:26:36;5.00;99.90
56256;DHT22;57229;51.432;-2.598;2023-04-03T07:29:02;5.40;99.90
56256;DHT22;57229;51.432;-2.598;2023-04-03T07:31:27;5.80;99.90
56256;DHT22;57229;51.432;-2.598;2023-04-03T07:33:53;6.20;99.90
56256;DHT22;57229;51.432;-2.598;2023-04-03T07:36:21;6.70;99.90
56256;DHT22;57229;51.432;-2.598;2023-04-03T07:38:47;7.00;99.90
56256;DHT22;57229;51.432;-2.598;2023-04-03T07:41:18;7.50;99.90
56256;DHT22;57229;51.432;-2.598;2023-04-03T07:43:45;8.00;99.90
56256;DHT22;57229;51.432;-2.598;2023-04-03T07:46:12;8.70;99.90
56256;DHT22;57229;51.432;-2.598;2023-04-03T07:48:38;9.20;99.90
56256;DHT22;57229;51.432;-2.598;2023-04-03T07:51:04;9.60;98.90
56256;DHT22;57229;51.432;-2.598;2023-04-03T07:53:31;10.00;98.10
56256;DHT22;57229;51.432;-2.598;2023-04-03T07:55:58;10.50;97.10
56256;DHT22;57229;51.432;-2.598;2023-04-03T07:58:24;10.90;96.80
56256;DHT22;57229;51.432;-2.598;2023-04-03T08:00:51;11.40;96.00
56256;DHT22;57229;51.432;-2.598;2023-04-03T08:03:20;11.80;94.40
56256;DHT22;57229;51.432;-2.598;2023-04-03T08:05:47;12.00;93.90
56256;DHT22;57229;51.432;-2.598;2023-04-03T08:08:19;12.40;93.20
56256;DHT22;57229;51.432;-2.598;2023-04-03T08:10:51;12.60;92.70
56256;DHT22;57229;51.432;-2.598;2023-04-03T08:13:18;12.90;91.90
56256;DHT22;57229;51.432;-2.598;2023-04-03T08:15:44;13.10;91.90
56256;DHT22;57229;51.432;-2.598;2023-04-03T08:18:10;13.50;90.60
56256;DHT22;57229;51.432;-2.598;2023-04-03T08:20:37;13.70;90.10
56256;DHT22;57229;51.432;-2.598;2023-04-03T08:23:04;14.00;90.00
56256;DHT22;57229;51.432;-2.598;2023-04-03T08:25:29;14.20;88.30
56256;DHT22;57229;51.432;-2.598;2023-04-03T08:27:56;14.30;86.40
56256;DHT22;57229;51.432;-2.598;2023-04-03T08:30:22;14.60;86.70
56256;DHT22;57229;51.432;-2.598;2023-04-03T08:32:47;14.60;87.10
56256;DHT22;57229;51.432;-2.598;2023-04-03T08:35:13;15.00;85.90
56256;DHT22;57229;51.432;-2.598;2023-04-03T08:37:39;15.70;84.40
56256;DHT22;57229;51.432;-2.598;2023-04-03T08:40:07;15.90;81.70
56256;DHT22;57229;51.432;-2.598;2023-04-03T08:45:51;16.00;81.10
56256;DHT22;57229;51.432;-2.598;2023-04-03T08:50:47;15.10;82.90
56256;DHT22;57229;51.432;-2.598;2023-04-03T08:53:23;15.20;82.70
56256;DHT22;57229;51.432;-2.598;2023-04-03T08:55:53;16.00;82.60
56256;DHT22;57229;51.432;-2.598;2023-04-03T08:58:28;16.70;77.10
56256;DHT22;57229;51.432;-2.598;2023-04-03T09:01:02;17.00;77.10
56256;DHT22;57229;51.432;-2.598;2023-04-03T09:03:41;17.20;77.20
56256;DHT22;57229;51.432;-2.598;2023-04-03T09:09:09;17.30;76.70
56256;DHT22;57229;51.432;-2.598;2023-04-03T09:20:19;18.70;74.60
56256;DHT22;57229;51.432;-2.598;2023-04-03T09:22:47;18.60;73.30
56256;DHT22;57229;51.432;-2.598;2023-04-03T09:25:27;18.60;72.50
56256;DHT22;57229;51.432;-2.598;2023-04-03T09:27:59;19.30;72.00
56256;DHT22;57229;51.432;-2.598;2023-04-03T09:30:26;19.90;71.10
56256;DHT22;57229;51.432;-2.598;2023-04-03T09:32:56;20.20;69.10
56256;DHT22;57229;51.432;-2.598;2023-04-03T09:35:33;20.50;68.80
56256;DHT22;57229;51.432;-2.598;2023-04-03T09:38:01;20.50;68.40
56256;DHT22;57229;51.432;-2.598;2023-04-03T09:40:44;20.20;66.40
56256;DHT22;57229;51.432;-2.598;2023-04-03T09:45:44;20.00;66.10
56256;DHT22;57229;51.432;-2.598;2023-04-03T09:53:40;21.10;65.40
56256;DHT22;57229;51.432;-2.598;2023-04-03T09:58:43;21.30;63.20
56256;DHT22;57229;51.432;-2.598;2023-04-03T10:01:32;20.70;65.60
56256;DHT22;57229;51.432;-2.598;2023-04-03T10:04:11;20.20;65.20
56256;DHT22;57229;51.432;-2.598;2023-04-03T10:06:44;20.00;64.60
56256;DHT22;57229;51.432;-2.598;2023-04-03T10:09:25;19.60;65.70
56256;DHT22;57229;51.432;-2.598;2023-04-03T10:12:10;18.70;67.00
56256;DHT22;57229;51.432;-2.598;2023-04-03T10:14:38;17.40;71.40
56256;DHT22;57229;51.432;-2.598;2023-04-03T10:22:20;20.00;68.10
56256;DHT22;57229;51.432;-2.598;2023-04-03T10:25:01;21.60;66.20
56256;DHT22;57229;51.432;-2.598;2023-04-03T10:33:04;18.20;71.00
56256;DHT22;57229;51.432;-2.598;2023-04-03T10:38:20;17.60;71.30
56256;DHT22;57229;51.432;-2.598;2023-04-03T10:44:04;18.60;70.50
56256;DHT22;57229;51.432;-2.598;2023-04-03T10:46:43;18.30;70.40
56256;DHT22;57229;51.432;-2.598;2023-04-03T10:51:44;19.50;67.30
56256;DHT22;57229;51.432;-2.598;2023-04-03T10:54:20;20.40;67.60
56256;DHT22;57229;51.432;-2.598;2023-04-03T10:57:01;20.10;66.90
56256;DHT22;57229;51.432;-2.598;2023-04-03T11:02:39;21.30;64.40
56256;DHT22;57229;51.432;-2.598;2023-04-03T11:05:18;21.20;63.50
56256;DHT22;57229;51.432;-2.598;2023-04-03T11:07:53;21.90;61.70
56256;DHT22;57229;51.432;-2.598;2023-04-03T11:33:17;25.80;59.40
56256;DHT22;57229;51.432;-2.598;2023-04-03T11:35:48;25.90;56.20
56256;DHT22;57229;51.432;-2.598;2023-04-03T11:38:29;25.50;54.80
56256;DHT22;57229;51.432;-2.598;2023-04-03T11:41:18;25.90;54.50
56256;DHT22;57229;51.432;-2.598;2023-04-03T11:58:04;26.00;54.10
56256;DHT22;57229;51.432;-2.598;2023-04-03T12:08:46;26.40;50.90
56256;DHT22;57229;51.432;-2.598;2023-04-03T12:19:56;21.60;59.60
56256;DHT22;57229;51.432;-2.598;2023-04-03T12:26:20;23.90;58.20
56256;DHT22;57229;51.432;-2.598;2023-04-03T12:28:48;25.10;52.90
56256;DHT22;57229;51.432;-2.598;2023-04-03T12:31:15;25.60;52.60
56256;DHT22;57229;51.432;-2.598;2023-04-03T12:37:30;24.60;55.70
56256;DHT22;57229;51.432;-2.598;2023-04-03T12:46:34;23.80;57.30
56256;DHT22;57229;51.432;-2.598;2023-04-03T12:52:39;25.90;55.00
56256;DHT22;57229;51.432;-2.598;2023-04-03T12:55:20;26.60;53.30
56256;DHT22;57229;51.432;-2.598;2023-04-03T12:57:47;26.60;53.60
56256;DHT22;57229;51.432;-2.598;2023-04-03T13:00:39;26.80;53.10
56256;DHT22;57229;51.432;-2.598;2023-04-03T13:03:06;26.90;53.50
56256;DHT22;57229;51.432;-2.598;2023-04-03T13:06:37;27.70;54.50
56256;DHT22;57229;51.432;-2.598;2023-04-03T13:12:22;29.40;49.80
56256;DHT22;57229;51.432;-2.598;2023-04-03T13:15:02;29.00;48.80
56256;DHT22;57229;51.432;-2.598;2023-04-03T13:17:30;29.20;49.00
56256;DHT22;57229;51.432;-2.598;2023-04-03T13:20:25;28.70;50.60
56256;DHT22;57229;51.432;-2.598;2023-04-03T13:26:33;29.10;49.20
56256;DHT22;57229;51.432;-2.598;2023-04-03T13:36:11;27.90;51.20
56256;DHT22;57229;51.432;-2.598;2023-04-03T13:49:58;26.70;51.80
56256;DHT22;57229;51.432;-2.598;2023-04-03T13:51:52;26.50;49.70
56256;DHT22;57229;51.432;-2.598;2023-04-03T13:54:36;26.20;52.00
56256;DHT22;57229;51.432;-2.598;2023-04-03T13:57:10;25.90;52.00
56256;DHT22;57229;51.432;-2.598;2023-04-03T13:59:37;26.00;52.50
56256;DHT22;57229;51.432;-2.598;2023-04-03T14:04:45;26.50;50.80
56256;DHT22;57229;51.432;-2.598;2023-04-03T14:07:16;26.70;47.60
56256;DHT22;57229;51.432;-2.598;2023-04-03T14:09:45;26.60;48.40
56256;DHT22;57229;51.432;-2.598;2023-04-03T14:14:43;26.50;52.50
56256;DHT22;57229;51.432;-2.598;2023-04-03T14:17:21;27.20;52.30
56256;DHT22;57229;51.432;-2.598;2023-04-03T14:19:49;27.80;49.40
56256;DHT22;57229;51.432;-2.598;2023-04-03T14:22:20;28.30;51.20
56256;DHT22;57229;51.432;-2.598;2023-04-03T14:24:48;27.90;48.50
56256;DHT22;57229;51.432;-2.598;2023-04-03T14:27:22;27.60;50.70
56256;DHT22;57229;51.432;-2.598;2023-04-03T14:29:50;28.30;52.10
56256;DHT22;57229;51.432;-2.598;2023-04-03T14:32:17;27.90;48.70
56256;DHT22;57229;51.432;-2.598;2023-04-03T14:34:44;27.90;49.60
56256;DHT22;57229;51.432;-2.598;2023-04-03T14:37:16;27.70;49.10
56256;DHT22;57229;51.432;-2.598;2023-04-03T14:39:43;26.80;49.70
56256;DHT22;57229;51.432;-2.598;2023-04-03T14:42:14;26.20;49.90
56256;DHT22;57229;51.432;-2.598;2023-04-03T14:44:41;26.30;51.10
56256;DHT22;57229;51.432;-2.598;2023-04-03T14:47:13;26.70;51.30
56256;DHT22;57229;51.432;-2.598;2023-04-03T14:49:40;27.10;49.00
56256;DHT22;57229;51.432;-2.598;2023-04-03T14:52:06;27.40;51.10
56256;DHT22;57229;51.432;-2.598;2023-04-03T14:54:33;27.60;48.60
56256;DHT22;57229;51.432;-2.598;2023-04-03T14:57:00;27.40;50.00
56256;DHT22;57229;51.432;-2.598;2023-04-03T14:59:26;27.50;50.00
56256;DHT22;57229;51.432;-2.598;2023-04-03T15:01:52;27.50;50.30
56256;DHT22;57229;51.432;-2.598;2023-04-03T15:04:20;28.20;49.10
56256;DHT22;57229;51.432;-2.598;2023-04-03T15:06:47;27.70;47.20
56256;DHT22;57229;51.432;-2.598;2023-04-03T15:09:25;26.50;48.90
56256;DHT22;57229;51.432;-2.598;2023-04-03T15:11:51;26.10;50.80
56256;DHT22;57229;51.432;-2.598;2023-04-03T15:14:19;26.80;50.70
56256;DHT22;57229;51.432;-2.598;2023-04-03T15:16:45;26.00;51.30
56256;DHT22;57229;51.432;-2.598;2023-04-03T15:19:11;26.40;52.60
56256;DHT22;57229;51.432;-2.598;2023-04-03T15:21:38;26.40;47.80
56256;DHT22;57229;51.432;-2.598;2023-04-03T15:24:03;25.10;47.70
56256;DHT22;57229;51.432;-2.598;2023-04-03T15:26:30;24.70;51.10
56256;DHT22;57229;51.432;-2.598;2023-04-03T15:28:56;25.00;51.50
56256;DHT22;57229;51.432;-2.598;2023-04-03T15:31:22;25.20;51.70
56256;DHT22;57229;51.432;-2.598;2023-04-03T15:33:48;25.70;50.40
56256;DHT22;57229;51.432;-2.598;2023-04-03T15:36:13;25.90;51.10
56256;DHT22;57229;51.432;-2.598;2023-04-03T15:38:39;26.30;51.60
56256;DHT22;57229;51.432;-2.598;2023-04-03T15:41:05;26.40;50.00
56256;DHT22;57229;51.432;-2.598;2023-04-03T15:43:31;26.60;52.00
56256;DHT22;57229;51.432;-2.598;2023-04-03T15:45:59;26.90;50.20
56256;DHT22;57229;51.432;-2.598;2023-04-03T15:48:26;26.70;50.00
56256;DHT22;57229;51.432;-2.598;2023-04-03T15:50:52;26.70;50.30
56256;DHT22;57229;51.432;-2.598;2023-04-03T15:53:18;26.60;50.50
56256;DHT22;57229;51.432;-2.598;2023-04-03T15:55:43;26.60;52.00
56256;DHT22;57229;51.432;-2.598;2023-04-03T15:58:09;26.50;50.80
56256;DHT22;57229;51.432;-2.598;2023-04-03T16:00:36;26.30;50.20
56256;DHT22;57229;51.432;-2.598;2023-04-03T16:03:09;26.30;51.10
56256;DHT22;57229;51.432;-2.598;2023-04-03T16:05:37;26.20;51.30
56256;DHT22;57229;51.432;-2.598;2023-04-03T16:08:04;26.10;49.50
56256;DHT22;57229;51.432;-2.598;2023-04-03T16:10:30;25.50;49.10
56256;DHT22;57229;51.432;-2.598;2023-04-03T16:12:56;25.20;51.50
56256;DHT22;57229;51.432;-2.598;2023-04-03T16:15:23;25.60;52.60
56256;DHT22;57229;51.432;-2.598;2023-04-03T16:17:49;25.80;51.60
56256;DHT22;57229;51.432;-2.598;2023-04-03T16:20:16;25.80;52.00
56256;DHT22;57229;51.432;-2.598;2023-04-03T16:22:43;25.80;53.40
56256;DHT22;57229;51.432;-2.598;2023-04-03T16:25:09;25.50;52.10
56256;DHT22;57229;51.432;-2.598;2023-04-03T16:27:35;25.30;53.10
56256;DHT22;57229;51.432;-2.598;2023-04-03T16:30:00;25.30;53.70
56256;DHT22;57229;51.432;-2.598;2023-04-03T16:32:28;25.30;53.90
56256;DHT22;57229;51.432;-2.598;2023-04-03T16:34:55;25.00;50.90
56256;DHT22;57229;51.432;-2.598;2023-04-03T16:37:21;24.40;52.60
56256;DHT22;57229;51.432;-2.598;2023-04-03T16:39:46;23.70;54.70
56256;DHT22;57229;51.432;-2.598;2023-04-03T16:42:12;23.40;55.20
56256;DHT22;57229;51.432;-2.598;2023-04-03T16:44:38;23.40;56.30
56256;DHT22;57229;51.432;-2.598;2023-04-03T16:47:05;23.70;56.10
56256;DHT22;57229;51.432;-2.598;2023-04-03T16:49:31;23.70;55.40
56256;DHT22;57229;51.432;-2.598;2023-04-03T16:52:03;23.30;54.70
56256;DHT22;57229;51.432;-2.598;2023-04-03T16:54:30;23.20;54.40
56256;DHT22;57229;51.432;-2.598;2023-04-03T16:56:56;22.80;55.30
56256;DHT22;57229;51.432;-2.598;2023-04-03T16:59:22;22.20;57.30
56256;DHT22;57229;51.432;-2.598;2023-04-03T17:01:49;22.10;58.10
56256;DHT22;57229;51.432;-2.598;2023-04-03T17:04:15;21.90;56.70
56256;DHT22;57229;51.432;-2.598;2023-04-03T17:06:41;21.30;58.50
56256;DHT22;57229;51.432;-2.598;2023-04-03T17:09:07;20.90;59.30
56256;DHT22;57229;51.432;-2.598;2023-04-03T17:11:35;20.30;61.50
56256;DHT22;57229;51.432;-2.598;2023-04-03T17:14:00;20.20;59.40
56256;DHT22;57229;51.432;-2.598;2023-04-03T17:16:26;20.10;61.00
56256;DHT22;57229;51.432;-2.598;2023-04-03T17:18:53;20.10;61.20
56256;DHT22;57229;51.432;-2.598;2023-04-03T17:21:19;20.10;61.10
56256;DHT22;57229;51.432;-2.598;2023-04-03T17:23:52;20.00;61.20
56256;DHT22;57229;51.432;-2.598;2023-04-03T17:26:19;19.50;60.80
56256;DHT22;57229;51.432;-2.598;2023-04-03T17:28:46;19.50;63.90
56256;DHT22;57229;51.432;-2.598;2023-04-03T17:31:12;19.40;62.60
56256;DHT22;57229;51.432;-2.598;2023-04-03T17:33:37;19.50;63.70
56256;DHT22;57229;51.432;-2.598;2023-04-03T17:36:04;19.70;62.80
56256;DHT22;57229;51.432;-2.598;2023-04-03T17:38:31;19.70;61.10
56256;DHT22;57229;51.432;-2.598;2023-04-03T17:41:04;19.60;62.80
56256;DHT22;57229;51.432;-2.598;2023-04-03T17:43:30;19.10;62.80
56256;DHT22;57229;51.432;-2.598;2023-04-03T17:46:04;18.80;65.00
56256;DHT22;57229;51.432;-2.598;2023-04-03T17:48:31;18.60;64.20
56256;DHT22;57229;51.432;-2.598;2023-04-03T17:50:57;18.40;64.30
56256;DHT22;57229;51.432;-2.598;2023-04-03T17:53:23;17.80;64.50
56256;DHT22;57229;51.432;-2.598;2023-04-03T17:55:49;18.00;65.10
56256;DHT22;57229;51.432;-2.598;2023-04-03T17:58:15;17.90;65.90
56256;DHT22;57229;51.432;-2.598;2023-04-03T18:00:41;17.80;65.70
56256;DHT22;57229;51.432;-2.598;2023-04-03T18:03:07;17.60;66.80
56256;DHT22;57229;51.432;-2.598;2023-04-03T18:05:33;17.20;68.10
56256;DHT22;57229;51.432;-2.598;2023-04-03T18:08:00;16.90;69.80
56256;DHT22;57229;51.432;-2.598;2023-04-03T18:10:26;16.70;69.60